Dover AFB, Delaware
Current Conditions -  °F | °C
As of 3:58 PM on Friday 19 Dec 2014 (Local Time) from KDOV Reporting Station
Clear Clear  
Wind Chill: 34°   Ceiling: Unl
Heat Index: 40°   Visibility: 10mi
Dew Point: 24°   Wind: 8mph
Humidity: 55%   Direction: 300°WNW
Pressure: 30.1"   Gusts: NA
Location:  39.16°N, 75.52°W
Report Text: KDOV 192058Z AUTO 30007KT 10SM CLR 04/M04 A3010 RMK AO2 SLP196 T00421042 53009
Loading
Personal Weather Stations






























Interactive Weather Map New forecast layout! Learn more

10-Day Weather Forecast

Advertisements
Track Severe Weather on mobile